SR-152 : Dinosaur Point Atmospheric Data: 03/22/2019 Summary  Detailed Graphs  Station List

  Temperature     Wind Precipitation Visibility
Timestamp Air Wet
Bulb
Dew-
point
24-hr
Max
24-hr
Min
Relative
Humidity
Atmospheric
Pressure
Avg
Speed
Avg
Dir
Spot
Speed
Spot
Dir
Max
Speed
Max
Dir
  Rate Situation Start End 1 hr 3 hr 6 hr 12 hr 24 hr   Situation
Date Time °F °F °F °F °F % in Hg mph ° mph ° mph ° Y/N in/hr text Date Time Date Time in in in in in mi text
03/22/2019 12:11 AM 43.70 42.08 40.46 60.08 36.68 89.0 x 10.51 W 10.51 W 12.53 W No 0.000 No Precipitation 03/21/2019 09:11 AM 03/21/2019 09:27 AM 0.000 0.000 0.000 0.000 0.000 1.24 Clear
03/22/2019 12:21 AM 43.16 41.90 40.64 60.08 36.68 91.0 x 10.51 W 10.74 W 12.75 W No 0.000 No Precipitation 03/21/2019 09:11 AM 03/21/2019 09:27 AM 0.000 0.000 0.000 0.000 0.000 1.24 Clear
03/22/2019 12:41 AM 44.24 42.98 41.90 60.08 36.68 92.0 x 12.08 W 12.75 W 14.54 W No 0.000 No Precipitation 03/21/2019 09:11 AM 03/21/2019 09:27 AM 0.000 0.000 0.000 0.000 0.000 1.24 Clear
03/22/2019 01:01 AM 44.24 43.16 41.90 60.08 36.68 92.0 x 9.62 W 9.62 W 11.86 W No 0.000 No Precipitation 03/21/2019 09:11 AM 03/21/2019 09:27 AM 0.000 0.000 0.000 0.000 0.000 1.24 Clear
03/22/2019 01:11 AM 44.60 43.70 42.26 60.08 36.68 92.0 x 9.84 W 9.17 W 12.08 W No 0.000 No Precipitation 03/21/2019 09:11 AM 03/21/2019 09:27 AM 0.000 0.000 0.000 0.000 0.000 1.24 Clear
03/22/2019 01:21 AM 45.14 43.88 42.62 60.08 36.68 91.0 x 10.29 W 9.62 W 12.97 W No 0.000 No Precipitation 03/21/2019 09:11 AM 03/21/2019 09:27 AM 0.000 0.000 0.000 0.000 0.000 1.24 Clear
03/22/2019 02:11 AM 44.78 44.06 43.34 60.08 36.68 95.0 x 10.74 W 10.07 W 12.97 W No 0.000 No Precipitation 03/21/2019 09:11 AM 03/21/2019 09:27 AM 0.000 0.000 0.000 0.000 0.000 1.24 Clear
03/22/2019 02:51 AM 44.78 44.24 43.52 60.08 36.68 95.0 x 11.18 W 11.86 W 14.76 W No 0.000 No Precipitation 03/21/2019 09:11 AM 03/21/2019 09:27 AM 0.000 0.000 0.000 0.000 0.000 1.24 Clear
03/22/2019 03:11 AM 44.24 43.70 42.98 60.08 36.68 96.0 x 10.29 W 11.18 W 13.87 SW No 0.000 No Precipitation 03/21/2019 09:11 AM 03/21/2019 09:27 AM 0.000 0.000 0.000 0.000 0.000 1.24 Clear
03/22/2019 03:22 AM 44.42 43.88 43.16 60.08 36.68 96.0 x 10.29 W 12.08 W 13.20 W No 0.000 No Precipitation 03/21/2019 09:11 AM 03/21/2019 09:27 AM 0.000 0.000 0.000 0.000 0.000 1.24 Clear
03/22/2019 03:41 AM 44.96 44.06 43.34 60.08 36.68 94.0 x 9.84 W 8.72 W 12.08 W No 0.000 No Precipitation 03/21/2019 09:11 AM 03/21/2019 09:27 AM 0.000 0.000 0.000 0.000 0.000 1.24 Clear
03/22/2019 04:01 AM 43.52 42.98 42.26 60.08 36.68 96.0 x 8.28 W 9.17 W 10.51 W No 0.000 No Precipitation 03/21/2019 09:11 AM 03/21/2019 09:27 AM 0.000 0.000 0.000 0.000 0.000 1.24 Clear
03/22/2019 04:11 AM 43.70 43.34 42.44 60.08 36.68 96.0 x 9.62 W 9.40 W 13.65 W No 0.000 No Precipitation 03/21/2019 09:11 AM 03/21/2019 09:27 AM 0.000 0.000 0.000 0.000 0.000 1.24 Clear
03/22/2019 04:21 AM 43.52 42.98 42.26 60.08 36.68 96.0 x 6.93 W 8.95 W 12.97 W No 0.000 No Precipitation 03/21/2019 09:11 AM 03/21/2019 09:27 AM 0.000 0.000 0.000 0.000 0.000 1.24 Clear
03/22/2019 04:31 AM 44.06 43.52 42.98 60.08 36.68 96.0 x 7.61 W 6.49 SW 10.51 W No 0.000 No Precipitation 03/21/2019 09:11 AM 03/21/2019 09:27 AM 0.000 0.000 0.000 0.000 0.000 1.24 Clear
03/22/2019 04:42 AM 43.70 42.98 42.44 60.08 36.68 96.0 x 6.93 W 6.04 W 9.62 W No 0.000 No Precipitation 03/21/2019 09:11 AM 03/21/2019 09:27 AM 0.000 0.000 0.000 0.000 0.000 1.24 Clear
03/22/2019 05:01 AM 44.06 42.62 42.44 60.08 36.68 94.0 x 6.71 W 6.49 W 11.18 W No 0.000 No Precipitation 03/21/2019 09:11 AM 03/21/2019 09:27 AM 0.000 0.000 0.000 0.000 0.000 1.24 Clear
03/22/2019 05:21 AM 42.26 41.72 41.18 60.08 36.68 96.0 x 7.83 W 6.49 W 9.84 W No 0.000 No Precipitation 03/21/2019 09:11 AM 03/21/2019 09:27 AM 0.000 0.000 0.000 0.000 0.000 1.24 Clear
03/22/2019 05:31 AM 43.34 42.80 42.62 60.08 36.68 97.0 x 7.16 W 6.71 W 9.40 W No 0.000 No Precipitation 03/21/2019 09:11 AM 03/21/2019 09:27 AM 0.000 0.000 0.000 0.000 0.000 1.24 Clear
03/22/2019 05:51 AM 42.08 41.54 40.82 60.08 36.68 96.0 x 8.28 W 7.61 W 9.84 W No 0.000 No Precipitation 03/21/2019 09:11 AM 03/21/2019 09:27 AM 0.000 0.000 0.000 0.000 0.000 1.24 Clear
03/22/2019 06:02 AM 41.72 41.72 40.82 60.08 36.68 97.0 x 5.59 SW 5.14 W 8.28 W No 0.000 No Precipitation 03/21/2019 09:11 AM 03/21/2019 09:27 AM 0.000 0.000 0.000 0.000 0.000 1.24 Clear
03/22/2019 06:11 AM 42.62 42.26 41.90 60.08 36.68 98.0 x 5.37 W 5.59 W 6.26 W No 0.000 No Precipitation 03/21/2019 09:11 AM 03/21/2019 09:27 AM 0.000 0.000 0.000 0.000 0.000 1.24 Clear
03/22/2019 06:21 AM 42.08 41.72 41.36 60.08 36.68 98.0 x 6.04 SW 6.71 W 6.71 SW No 0.000 No Precipitation 03/21/2019 09:11 AM 03/21/2019 09:27 AM 0.000 0.000 0.000 0.000 0.000 1.24 Clear
03/22/2019 06:31 AM 42.98 42.62 42.44 60.08 36.68 98.0 x 6.04 W 5.14 W 7.16 SW No 0.000 No Precipitation 03/21/2019 09:11 AM 03/21/2019 09:27 AM 0.000 0.000 0.000 0.000 0.000 1.24 Clear
03/22/2019 06:42 AM 42.62 42.26 41.90 60.08 36.68 98.0 x 9.62 W 9.62 W 10.74 W No 0.000 No Precipitation 03/21/2019 09:11 AM 03/21/2019 09:27 AM 0.000 0.000 0.000 0.000 0.000 1.24 Clear
03/22/2019 06:51 AM 42.62 42.44 41.90 60.08 36.68 97.0 x 10.51 W 11.41 W 12.08 W No 0.000 No Precipitation 03/21/2019 09:11 AM 03/21/2019 09:27 AM 0.000 0.000 0.000 0.000 0.000 1.24 Clear
03/22/2019 07:11 AM 43.34 42.80 42.26 60.08 36.68 96.0 x 10.07 W 8.95 W 12.97 W No 0.000 No Precipitation 03/21/2019 09:11 AM 03/21/2019 09:27 AM 0.000 0.000 0.000 0.000 0.000 1.24 Clear
03/22/2019 07:22 AM 43.34 42.80 42.26 60.08 36.68 96.0 x 7.38 W 6.93 W 10.51 W No 0.000 No Precipitation 03/21/2019 09:11 AM 03/21/2019 09:27 AM 0.000 0.000 0.000 0.000 0.000 1.24 Clear
03/22/2019 07:31 AM 43.70 43.16 42.44 60.08 36.68 96.0 x 5.14 W 5.37 W 8.28 W No 0.000 No Precipitation 03/21/2019 09:11 AM 03/21/2019 09:27 AM 0.000 0.000 0.000 0.000 0.000 1.24 Clear
03/22/2019 07:41 AM 43.34 42.62 41.90 60.08 36.68 95.0 x 4.03 W 3.58 W 7.16 W No 0.000 No Precipitation 03/21/2019 09:11 AM 03/21/2019 09:27 AM 0.000 0.000 0.000 0.000 0.000 1.24 Clear
03/22/2019 08:01 AM 44.06 43.16 42.08 60.08 36.68 93.0 x 4.92 W 5.14 W 6.93 W No 0.000 No Precipitation 03/21/2019 09:11 AM 03/21/2019 09:27 AM 0.000 0.000 0.000 0.000 0.000 1.24 Clear
03/22/2019 08:51 AM 45.32 43.70 42.08 60.08 37.40 89.0 x 2.68 NW 2.24 W 4.25 NW No 0.000 No Precipitation 03/21/2019 09:11 AM 03/21/2019 09:27 AM 0.000 0.000 0.000 0.000 0.000 1.24 Clear
03/22/2019 09:21 AM 45.68 44.24 42.26 60.08 40.64 89.0 x 4.92 W 5.82 W 5.59 W No 0.000 No Precipitation 03/21/2019 09:11 AM 03/21/2019 09:27 AM 0.000 0.000 0.000 0.000 0.000 1.24 Clear
03/22/2019 09:41 AM 46.04 44.78 43.52 60.08 41.18 91.0 x 3.80 W 2.91 W 7.38 W No 0.000 No Precipitation 03/21/2019 09:11 AM 03/21/2019 09:27 AM 0.000 0.000 0.000 0.000 0.000 1.24 Clear
03/22/2019 09:51 AM 46.22 44.60 43.16 60.08 41.18 89.0 x 2.68 W 5.82 W 4.47 W No 0.000 No Precipitation 03/21/2019 09:11 AM 03/21/2019 09:27 AM 0.000 0.000 0.000 0.000 0.000 1.24 Clear
03/22/2019 10:01 AM 46.58 45.14 43.52 60.08 41.18 90.0 x 5.14 W 5.59 W 8.72 W No 0.000 No Precipitation 03/21/2019 09:11 AM 03/21/2019 09:27 AM 0.000 0.000 0.000 0.000 0.000 1.24 Clear
03/22/2019 10:11 AM 45.86 44.78 43.34 60.08 41.18 92.0 x 6.04 W 5.82 W 8.50 W No 0.000 No Precipitation 03/21/2019 09:11 AM 03/21/2019 09:27 AM 0.000 0.000 0.000 0.000 0.000 1.24 Clear
03/22/2019 10:31 AM 48.20 45.68 44.24 60.08 41.18 85.0 x 7.61 W 7.61 W 10.74 W No 0.000 No Precipitation 03/21/2019 09:11 AM 03/21/2019 09:27 AM 0.000 0.000 0.000 0.000 0.000 1.24 Clear
03/22/2019 10:51 AM 48.02 45.68 44.06 60.08 41.18 85.0 x 6.26 SW 8.05 SW 10.51 W No 0.000 No Precipitation 03/21/2019 09:11 AM 03/21/2019 09:27 AM 0.000 0.000 0.000 0.000 0.000 1.24 Clear
03/22/2019 11:01 AM 47.66 45.14 42.80 60.08 41.18 83.0 x 6.93 SW 6.49 SW 8.95 SW No 0.000 No Precipitation 03/21/2019 09:11 AM 03/21/2019 09:27 AM 0.000 0.000 0.000 0.000 0.000 1.24 Clear
03/22/2019 12:01 PM 49.64 45.86 42.44 60.08 41.18 75.0 x 10.07 W 9.84 SW 13.87 W No 0.000 No Precipitation 03/21/2019 09:11 AM 03/21/2019 09:27 AM 0.000 0.000 0.000 0.000 0.000 1.24 Clear
03/22/2019 12:11 PM 50.18 45.68 41.18 60.08 41.18 71.0 x 12.75 W 12.75 W 16.11 W No 0.000 No Precipitation 03/21/2019 09:11 AM 03/21/2019 09:27 AM 0.000 0.000 0.000 0.000 0.000 1.24 Clear
03/22/2019 12:41 PM 50.72 45.86 40.82 60.08 41.18 69.0 x 16.55 W 19.46 W 22.37 W No 0.000 No Precipitation 03/21/2019 09:11 AM 03/21/2019 09:27 AM 0.000 0.000 0.000 0.000 0.000 1.24 Clear
03/22/2019 12:51 PM 50.90 45.68 39.56 60.08 41.18 66.0 x 16.78 W 14.32 W 21.92 W No 0.000 No Precipitation 03/21/2019 09:11 AM 03/21/2019 09:27 AM 0.000 0.000 0.000 0.000 0.000 1.24 Clear
03/22/2019 01:01 PM 51.62 46.40 41.00 60.08 41.18 66.0 x 10.96 W 10.29 W 16.78 W No 0.000 No Precipitation 03/21/2019 09:11 AM 03/21/2019 09:27 AM 0.000 0.000 0.000 0.000 0.000 1.24 Clear
03/22/2019 01:11 PM 51.62 46.22 41.00 60.08 41.18 67.0 x 11.63 SW 10.96 W 16.78 W No 0.000 No Precipitation 03/21/2019 09:11 AM 03/21/2019 09:27 AM 0.000 0.000 0.000 0.000 0.000 1.24 Clear
03/22/2019 01:21 PM 52.52 47.48 42.26 60.08 41.18 69.0 x 10.29 W 8.05 W 14.54 W No 0.000 No Precipitation 03/21/2019 09:11 AM 03/21/2019 09:27 AM 0.000 0.000 0.000 0.000 0.000 1.24 Clear
03/22/2019 01:32 PM 52.52 48.56 43.88 60.08 41.18 71.0 x 9.84 W 12.75 W 14.76 W No 0.000 No Precipitation 03/21/2019 09:11 AM 03/21/2019 09:27 AM 0.000 0.000 0.000 0.000 0.000 1.24 Clear
03/22/2019 01:41 PM 52.70 47.48 43.34 60.08 41.18 71.0 x 9.84 SW 9.84 W 14.54 W No 0.000 No Precipitation 03/21/2019 09:11 AM 03/21/2019 09:27 AM 0.000 0.000 0.000 0.000 0.000 1.24 Clear
03/22/2019 01:51 PM 51.80 47.30 42.80 60.08 41.18 72.0 x 9.40 W 6.04 W 10.96 W No 0.000 No Precipitation 03/21/2019 09:11 AM 03/21/2019 09:27 AM 0.000 0.000 0.000 0.000 0.000 1.24 Clear
03/22/2019 02:21 PM 53.42 48.56 43.88 60.08 41.18 71.0 x 11.18 SW 12.53 W 14.54 W No 0.000 No Precipitation 03/21/2019 09:11 AM 03/21/2019 09:27 AM 0.000 0.000 0.000 0.000 0.000 1.24 Clear
03/22/2019 02:31 PM 54.14 48.92 45.14 60.08 41.18 69.0 x 9.62 W 10.96 SW 15.88 SW No 0.000 No Precipitation 03/21/2019 09:11 AM 03/21/2019 09:27 AM 0.000 0.000 0.000 0.000 0.000 1.24 Clear
03/22/2019 02:41 PM 54.68 49.28 44.60 60.08 41.18 68.0 x 11.41 W 13.42 SW 15.88 W No 0.000 No Precipitation 03/21/2019 09:11 AM 03/21/2019 09:27 AM 0.000 0.000 0.000 0.000 0.000 1.24 Clear
03/22/2019 03:11 PM 54.86 49.10 45.50 60.08 41.18 67.0 x 10.07 SW 8.50 W 16.33 W No 0.000 No Precipitation 03/21/2019 09:11 AM 03/21/2019 09:27 AM 0.000 0.000 0.000 0.000 0.000 1.24 Clear
03/22/2019 03:21 PM 54.68 48.74 44.06 60.08 41.18 67.0 x 10.51 SW 11.41 SW 14.32 W No 0.000 No Precipitation 03/21/2019 09:11 AM 03/21/2019 09:27 AM 0.000 0.000 0.000 0.000 0.000 1.24 Clear
03/22/2019 03:41 PM 55.04 49.28 44.60 60.08 41.18 67.0 x 8.50 W 6.93 W 12.08 W No 0.000 No Precipitation 03/21/2019 09:11 AM 03/21/2019 09:27 AM 0.000 0.000 0.000 0.000 0.000 1.24 Clear
03/22/2019 04:11 PM 55.58 50.18 45.32 60.08 41.18 70.0 x 7.83 W 9.62 SW 13.42 W No 0.000 No Precipitation 03/21/2019 09:11 AM 03/21/2019 09:27 AM 0.000 0.000 0.000 0.000 0.000 1.24 Clear
03/22/2019 04:51 PM 55.04 49.64 44.96 60.08 41.18 69.0 x 11.41 W 11.18 W 13.65 W No 0.000 No Precipitation 03/21/2019 09:11 AM 03/21/2019 09:27 AM 0.000 0.000 0.000 0.000 0.000 1.24 Clear
03/22/2019 05:21 PM 55.40 50.00 45.50 59.36 41.18 69.0 x 13.20 W 14.32 W 16.11 W No 0.000 No Precipitation 03/21/2019 09:11 AM 03/21/2019 09:27 AM 0.000 0.000 0.000 0.000 0.000 1.24 Clear
03/22/2019 05:31 PM 54.68 50.18 45.50 59.36 41.18 73.0 x 11.63 W 10.96 W 15.88 W Yes 0.001 Rain Slight 03/22/2019 04:28 PM   0.000 0.000 0.000 0.000 0.000 1.24 Clear
03/22/2019 05:41 PM 54.32 50.18 46.58 58.28 41.18 75.0 x 10.74 W 14.76 W 14.76 W Yes 0.001 Rain Slight 03/22/2019 04:28 PM   0.000 0.000 0.000 0.000 0.000 1.24 Clear
03/22/2019 05:51 PM 53.42 49.64 46.58 57.20 41.18 78.0 x 12.97 W 14.32 W 15.66 W Yes 0.001 Rain Slight 03/22/2019 04:28 PM   0.004 0.004 0.004 0.004 0.004 1.24 Clear
03/22/2019 06:01 PM 53.24 50.36 47.66 57.20 41.18 81.0 x 12.75 W 11.63 W 15.66 W Yes 0.002 Rain Slight 03/22/2019 04:28 PM   0.004 0.004 0.004 0.004 0.004 1.24 Clear
03/22/2019 06:31 PM 52.16 49.64 47.48 56.48 41.18 85.0 x 11.86 W 9.40 W 16.11 W Yes 0.000 No Precipitation 03/22/2019 05:28 PM   0.008 0.008 0.008 0.008 0.008 1.24 Clear
03/22/2019 07:12 PM 51.44 49.82 48.20 56.48 41.18 89.0 x 9.62 W 9.17 W 15.21 W Yes 0.000 No Precipitation 03/22/2019 06:06 PM   0.004 0.012 0.012 0.012 0.012 1.24 Clear
03/22/2019 08:21 PM 50.00 48.92 48.02 56.48 41.18 93.0 x 9.84 W 9.84 W 12.53 W Yes 0.001 Rain Slight 03/22/2019 06:34 PM   0.012 0.024 0.024 0.024 0.024 1.24 Clear
03/22/2019 08:31 PM 50.00 49.10 48.02 56.48 41.18 93.0 x 9.84 W 10.07 W 11.86 W Yes 0.000 Rain Slight 03/22/2019 06:34 PM   0.012 0.024 0.024 0.024 0.024 1.24 Clear
03/22/2019 08:41 PM 50.00 48.92 48.20 56.48 41.18 94.0 x 10.74 W 10.74 W 13.20 W Yes 0.001 Rain Slight 03/22/2019 06:34 PM   0.012 0.024 0.024 0.028 0.024 1.24 Clear
03/22/2019 08:51 PM 49.82 48.92 48.20 56.48 41.18 94.0 x 9.17 W 9.62 W 12.75 W Yes 0.001 Rain Slight 03/22/2019 06:34 PM   0.012 0.024 0.028 0.028 0.028 1.24 Clear
03/22/2019 09:11 PM 49.64 48.92 48.20 56.48 41.18 95.0 x 8.50 W 8.95 W 11.86 SW Yes 0.001 Rain Slight 03/22/2019 06:34 PM   0.008 0.024 0.028 0.028 0.028 1.24 Clear
03/22/2019 09:21 PM 49.64 48.92 48.20 56.48 41.18 96.0 x 8.50 W 8.72 SW 10.51 W Yes 0.001 Rain Slight 03/22/2019 06:34 PM   0.008 0.024 0.031 0.031 0.031 1.24 Clear
03/22/2019 09:31 PM 49.46 48.92 48.20 56.48 41.18 96.0 x 8.72 W 8.50 W 10.07 W Yes 0.000 Rain Slight 03/22/2019 06:34 PM   0.008 0.024 0.031 0.031 0.031 1.24 Clear
03/22/2019 09:41 PM 49.46 48.92 48.38 56.48 41.18 96.0 x 8.50 W 7.61 W 10.74 W Yes 0.000 Rain Slight 03/22/2019 06:34 PM   0.008 0.024 0.031 0.031 0.031 1.24 Clear
03/22/2019 09:51 PM 49.46 48.92 48.38 56.48 41.18 96.0 x 9.40 SW 9.17 SW 11.18 SW Yes 0.000 Rain Slight 03/22/2019 06:34 PM   0.008 0.024 0.031 0.031 0.031 1.24 Clear
03/22/2019 10:21 PM 49.46 49.10 48.56 56.48 41.18 97.0 x 9.40 W 8.72 W 13.42 W Yes 0.000 Rain Slight 03/22/2019 06:34 PM   0.004 0.024 0.035 0.035 0.035 1.24 Clear
03/22/2019 10:41 PM 49.46 48.92 48.56 56.48 41.18 97.0 x 9.62 W 10.74 W 13.20 W Yes 0.000 Rain Slight 03/22/2019 06:34 PM   0.004 0.024 0.035 0.035 0.035 1.24 Clear
03/22/2019 10:52 PM 49.28 48.92 48.56 56.48 41.18 97.0 x 10.07 W 8.95 W 12.75 W Yes 0.001 Rain Slight 03/22/2019 06:34 PM   0.004 0.024 0.039 0.039 0.039 1.24 Clear
03/22/2019 11:01 PM 49.46 48.92 48.56 56.48 41.18 97.0 x 9.40 W 9.40 W 12.08 W Yes 0.001 Rain Slight 03/22/2019 06:34 PM   0.004 0.020 0.039 0.039 0.039 1.24 Clear
03/22/2019 11:42 PM 49.28 48.92 48.56 56.48 41.18 98.0 x 11.63 W 12.75 W 13.42 W Yes 0.000 Rain Slight 03/22/2019 06:34 PM   0.008 0.020 0.043 0.043 0.043 1.24 Clear